createdAt,value
2022-11-24T00:00:18.754Z,96861.00
2022-11-24T00:03:05.887Z,96866.69
2022-11-24T00:05:52.917Z,96869.38
2022-11-24T00:08:41.484Z,96869.31
2022-11-24T00:11:31.757Z,96870.09
2022-11-24T00:14:18.922Z,96869.91
2022-11-24T00:17:05.880Z,96861.63
2022-11-24T00:19:52.856Z,96866.81
2022-11-24T00:22:39.800Z,96864.94
2022-11-24T00:25:26.713Z,96870.56
2022-11-24T00:28:13.690Z,96870.47
2022-11-24T00:31:01.038Z,96873.34
2022-11-24T00:33:49.973Z,96868.28
2022-11-24T00:36:37.910Z,96870.56
2022-11-24T00:39:24.943Z,96882.38
2022-11-24T00:42:11.857Z,96889.34
2022-11-24T00:44:58.753Z,96886.00
2022-11-24T00:47:45.636Z,96886.53
2022-11-24T00:50:32.608Z,96889.22
2022-11-24T00:53:19.681Z,96893.88
2022-11-24T00:56:07.852Z,96899.19
2022-11-24T00:58:54.856Z,96903.13
2022-11-24T01:01:42.749Z,96904.88
2022-11-24T01:04:29.714Z,96898.66
2022-11-24T01:07:16.705Z,96904.56
2022-11-24T01:10:04.260Z,96896.16
2022-11-24T01:12:51.222Z,96900.19
2022-11-24T01:15:38.203Z,96904.69
2022-11-24T01:18:25.270Z,96905.09
2022-11-24T01:21:12.838Z,96902.28
2022-11-24T01:23:59.804Z,96903.22
2022-11-24T01:26:46.742Z,96900.19
2022-11-24T01:29:33.716Z,96909.63
2022-11-24T01:32:20.619Z,96915.94
2022-11-24T01:35:08.473Z,96919.47
2022-11-24T01:37:55.368Z,96920.19
2022-11-24T01:40:42.337Z,96916.56
2022-11-24T01:43:29.517Z,96929.81
2022-11-24T01:46:42.160Z,96922.56
2022-11-24T01:49:41.269Z,96924.31
2022-11-24T01:52:40.369Z,96932.94
2022-11-24T01:55:32.513Z,96928.16
2022-11-24T01:58:27.423Z,96926.38
2022-11-24T02:01:14.364Z,96930.53
2022-11-24T02:04:04.301Z,96937.19
2022-11-24T02:06:52.468Z,96930.03
2022-11-24T02:09:52.161Z,96943.72
2022-11-24T02:12:43.355Z,96938.31
2022-11-24T02:15:30.859Z,96934.50
2022-11-24T02:18:17.799Z,96922.03
2022-11-24T02:21:05.307Z,96941.97
2022-11-24T02:24:14.073Z,96941.63
2022-11-24T02:27:01.044Z,96933.63
2022-11-24T02:29:49.199Z,96939.88
2022-11-24T02:32:38.857Z,96940.19
2022-11-24T02:35:28.040Z,96946.19
2022-11-24T02:38:15.128Z,96940.47
2022-11-24T02:41:11.556Z,96940.69
2022-11-24T02:44:01.819Z,96939.25
2022-11-24T02:46:48.727Z,96942.97
2022-11-24T02:49:36.090Z,96945.47
2022-11-24T02:52:23.048Z,96936.31
2022-11-24T02:55:10.225Z,96944.50
2022-11-24T02:57:57.397Z,96943.59
2022-11-24T03:00:44.329Z,96951.47
2022-11-24T03:03:31.482Z,96953.97
2022-11-24T03:06:18.415Z,96956.88
2022-11-24T03:09:06.417Z,96965.72
2022-11-24T03:11:53.430Z,96962.03
2022-11-24T03:14:40.357Z,96959.56
2022-11-24T03:17:27.321Z,96965.78
2022-11-24T03:20:14.303Z,96967.66
2022-11-24T03:23:01.232Z,96972.22
2022-11-24T03:25:48.147Z,96972.34
2022-11-24T03:28:35.188Z,96978.88
2022-11-24T03:31:23.334Z,96976.34
2022-11-24T03:34:10.523Z,96979.25
2022-11-24T03:36:57.644Z,96987.66
2022-11-24T03:39:44.609Z,96990.44
2022-11-24T03:42:31.485Z,96994.16
2022-11-24T03:48:26.222Z,97004.56
2022-11-24T03:51:13.184Z,97006.28
2022-11-24T03:54:00.105Z,97010.84
2022-11-24T03:56:47.540Z,97009.97
2022-11-24T03:59:34.779Z,97020.00
2022-11-24T04:02:21.833Z,97014.78
2022-11-24T04:05:09.581Z,97013.41
2022-11-24T04:08:03.037Z,97024.41
2022-11-24T04:10:52.965Z,97016.09
2022-11-24T04:13:39.905Z,97016.50
2022-11-24T04:16:26.945Z,97019.00
2022-11-24T04:19:14.015Z,97017.00
2022-11-24T04:22:00.964Z,97012.31
2022-11-24T04:24:47.946Z,97019.47
2022-11-24T04:27:36.230Z,97030.72
2022-11-24T04:30:25.126Z,97032.16
2022-11-24T04:33:12.992Z,97039.03
2022-11-24T04:35:59.902Z,97052.09
2022-11-24T04:39:19.845Z,97073.44
2022-11-24T04:41:53.893Z,97058.84
2022-11-24T04:44:40.811Z,97059.84
2022-11-24T04:47:28.016Z,97063.31
2022-11-24T04:50:14.984Z,97076.47
2022-11-24T04:53:01.962Z,97073.69
2022-11-24T04:55:48.977Z,97073.75
2022-11-24T04:58:36.394Z,97083.69
2022-11-24T05:01:23.546Z,97084.97
2022-11-24T05:04:15.658Z,97085.13
2022-11-24T05:07:02.885Z,97097.19
2022-11-24T05:10:08.579Z,97089.06
2022-11-24T05:12:56.712Z,97081.31
2022-11-24T05:15:43.934Z,97089.59
2022-11-24T05:18:31.145Z,97087.00
2022-11-24T05:21:18.194Z,97094.25
2022-11-24T05:24:05.461Z,97089.09
2022-11-24T05:26:52.382Z,97097.47
2022-11-24T05:29:39.338Z,97106.78
2022-11-24T05:32:26.368Z,97111.81
2022-11-24T05:35:14.319Z,97122.97
2022-11-24T05:38:01.290Z,97121.44
2022-11-24T05:40:48.589Z,97116.25
2022-11-24T05:43:35.571Z,97122.81
2022-11-24T05:46:22.560Z,97127.88
2022-11-24T05:49:09.664Z,97117.22
2022-11-24T05:51:56.577Z,97120.88
2022-11-24T05:54:43.597Z,97121.59
2022-11-24T05:57:30.659Z,97135.47
2022-11-24T06:00:18.283Z,97140.00
2022-11-24T06:03:06.095Z,97134.38
2022-11-24T06:05:53.053Z,97144.69
2022-11-24T06:08:39.976Z,97158.47
2022-11-24T06:11:26.926Z,97142.53
2022-11-24T06:14:14.491Z,97148.34
2022-11-24T06:17:01.498Z,97141.47
2022-11-24T06:19:50.176Z,97139.84
2022-11-24T06:22:37.704Z,97134.41
2022-11-24T06:25:24.646Z,97156.22
2022-11-24T06:28:11.602Z,97161.25
2022-11-24T06:31:03.271Z,97160.53
2022-11-24T06:33:50.500Z,97163.25
2022-11-24T06:36:38.412Z,97172.63
2022-11-24T06:39:25.564Z,97165.75
2022-11-24T06:42:12.517Z,97157.63
2022-11-24T06:45:00.341Z,97167.38
2022-11-24T06:47:47.398Z,97171.56
2022-11-24T06:50:34.311Z,97173.13
2022-11-24T06:53:21.196Z,97178.59
2022-11-24T06:56:16.285Z,97184.56
2022-11-24T06:59:03.855Z,97179.69
2022-11-24T07:01:51.007Z,97187.50
2022-11-24T07:04:37.880Z,97180.94
2022-11-24T07:07:24.901Z,97181.47
2022-11-24T07:10:11.820Z,97179.88
2022-11-24T07:12:58.694Z,97190.13
2022-11-24T07:15:45.617Z,97207.63
2022-11-24T07:18:32.865Z,97211.31
2022-11-24T07:21:21.517Z,97203.19
2022-11-24T07:24:08.658Z,97209.38
2022-11-24T07:26:55.561Z,97211.03
2022-11-24T07:29:42.485Z,97213.03
2022-11-24T07:32:29.516Z,97211.19
2022-11-24T07:35:16.499Z,97209.94
2022-11-24T07:38:03.521Z,97221.16
2022-11-24T07:40:50.443Z,97228.19
2022-11-24T07:43:38.416Z,97221.56
2022-11-24T07:46:25.425Z,97232.59
2022-11-24T07:49:12.427Z,97238.59
2022-11-24T07:52:00.783Z,97242.22
2022-11-24T07:54:47.693Z,97249.16
2022-11-24T07:57:34.923Z,97257.31
2022-11-24T08:00:21.901Z,97252.09
2022-11-24T08:03:08.944Z,97259.94
2022-11-24T08:06:23.058Z,97261.22
2022-11-24T08:09:07.223Z,97256.53
2022-11-24T08:11:54.117Z,97259.84
2022-11-24T08:14:41.054Z,97257.16
2022-11-24T08:17:30.807Z,97263.53
2022-11-24T08:20:17.951Z,97265.16
2022-11-24T08:23:04.826Z,97269.31
2022-11-24T08:25:55.651Z,97267.75
2022-11-24T08:28:45.553Z,97269.78
2022-11-24T08:31:34.034Z,97270.72
2022-11-24T08:34:21.052Z,97273.63
2022-11-24T08:37:07.972Z,97275.59
2022-11-24T08:39:54.959Z,97274.00
2022-11-24T08:42:41.877Z,97280.66
2022-11-24T08:45:30.760Z,97277.81
2022-11-24T08:48:17.842Z,97272.06
2022-11-24T08:51:13.177Z,97273.25
2022-11-24T08:54:01.256Z,97274.22
2022-11-24T08:56:49.488Z,97280.03
2022-11-24T08:59:36.442Z,97272.81
2022-11-24T09:02:23.385Z,97269.75
2022-11-24T09:05:35.929Z,97263.06
2022-11-24T09:08:17.534Z,97270.69
2022-11-24T09:11:07.208Z,97271.78
2022-11-24T09:13:55.121Z,97274.50
2022-11-24T09:16:42.087Z,97269.66
2022-11-24T09:19:29.048Z,97266.78
2022-11-24T09:22:16.048Z,97275.47
2022-11-24T09:25:02.963Z,97267.66
2022-11-24T09:27:51.038Z,97266.78
2022-11-24T09:30:38.022Z,97273.31
2022-11-24T09:33:24.899Z,97276.75
2022-11-24T09:36:11.745Z,97276.22
2022-11-24T09:39:00.464Z,97280.94
2022-11-24T09:42:14.378Z,97286.75
2022-11-24T09:45:22.789Z,97288.19
2022-11-24T09:48:30.553Z,97287.25
2022-11-24T09:51:22.216Z,97289.44
2022-11-24T09:54:18.391Z,97285.28
2022-11-24T09:57:07.339Z,97286.19
2022-11-24T09:59:59.858Z,97294.16
2022-11-24T10:02:49.918Z,97302.50
2022-11-24T10:05:37.225Z,97297.78
2022-11-24T10:08:48.038Z,97305.03
2022-11-24T10:11:58.813Z,97299.25
2022-11-24T10:15:25.679Z,97294.16
2022-11-24T10:18:16.797Z,97304.13
2022-11-24T10:21:53.444Z,97299.78
2022-11-24T10:25:33.338Z,97308.31
2022-11-24T10:28:20.245Z,97303.97
2022-11-24T10:31:40.412Z,97303.75
2022-11-24T10:34:43.683Z,97310.84
2022-11-24T10:37:37.276Z,97312.84
2022-11-24T10:43:44.192Z,97307.94
2022-11-24T10:46:36.289Z,97308.47
2022-11-24T10:49:30.018Z,97303.22
2022-11-24T10:52:19.003Z,97298.69
2022-11-24T10:55:06.513Z,97304.13
2022-11-24T10:57:53.506Z,97299.75
2022-11-24T11:00:40.460Z,97303.38
2022-11-24T11:03:47.637Z,97300.66
2022-11-24T11:06:36.331Z,97302.28
2022-11-24T11:09:23.431Z,97313.31
2022-11-24T11:12:43.532Z,97304.97
2022-11-24T11:15:31.881Z,97298.59
2022-11-24T11:18:19.777Z,97309.47
2022-11-24T11:21:07.053Z,97309.44
2022-11-24T11:23:54.416Z,97308.34
2022-11-24T11:26:42.446Z,97308.88
2022-11-24T11:36:01.933Z,97305.91
2022-11-24T11:38:49.069Z,97305.41
2022-11-24T11:41:43.454Z,97295.44
2022-11-24T11:44:38.632Z,97302.47
2022-11-24T11:47:31.480Z,97288.69
2022-11-24T11:50:26.165Z,97284.47
2022-11-24T11:53:47.136Z,97271.59
2022-11-24T11:56:40.388Z,97267.97
2022-11-24T12:00:07.382Z,97279.59
2022-11-24T12:03:40.607Z,97274.31
2022-11-24T12:07:12.398Z,97277.28
2022-11-24T12:10:36.246Z,97284.53
2022-11-24T12:13:50.606Z,97283.81
2022-11-24T12:16:49.712Z,97289.75
2022-11-24T12:44:57.284Z,97296.69
2022-11-24T12:48:13.493Z,97291.63
2022-11-24T12:51:01.448Z,97297.59
2022-11-24T12:53:50.818Z,97297.56
2022-11-24T12:56:52.867Z,97294.69
2022-11-24T13:00:07.461Z,97295.06
2022-11-24T13:03:23.608Z,97291.06
2022-11-24T13:06:19.274Z,97289.97
2022-11-24T13:09:13.720Z,97286.72
2022-11-24T13:12:11.329Z,97297.78
2022-11-24T13:14:58.572Z,97289.63
2022-11-24T13:18:03.945Z,97288.91
2022-11-24T13:20:52.649Z,97288.88
2022-11-24T13:23:39.762Z,97288.88
2022-11-24T13:26:43.889Z,97284.53
2022-11-24T13:29:38.604Z,97285.25
2022-11-24T13:32:59.410Z,97288.31
2022-11-24T13:36:04.724Z,97285.22
2022-11-24T13:38:52.860Z,97285.25
2022-11-24T13:42:02.984Z,97288.31
2022-11-24T13:44:51.412Z,97289.41
2022-11-24T13:47:43.833Z,97291.97
2022-11-24T13:51:09.820Z,97298.16
2022-11-24T13:53:58.421Z,97294.72
2022-11-24T13:56:45.341Z,97292.88
2022-11-24T13:59:35.305Z,97291.97
2022-11-24T14:02:23.991Z,97301.59
2022-11-24T14:05:15.819Z,97300.69
2022-11-24T14:08:05.108Z,97300.88
2022-11-24T14:10:54.066Z,97294.88
2022-11-24T14:13:41.181Z,97309.75
2022-11-24T14:16:28.177Z,97310.13
2022-11-24T14:19:18.691Z,97309.56
2022-11-24T14:22:05.747Z,97308.09
2022-11-24T14:25:00.828Z,97319.34
2022-11-24T14:27:47.790Z,97314.13
2022-11-24T14:30:34.773Z,97345.09
2022-11-24T14:33:21.707Z,97385.91
2022-11-24T14:36:15.296Z,97388.94
2022-11-24T14:39:02.227Z,97394.41
2022-11-24T14:41:59.128Z,97385.72
2022-11-24T14:45:03.932Z,97397.72
2022-11-24T14:47:51.024Z,97397.84
2022-11-24T14:50:38.044Z,97394.41
2022-11-24T14:53:26.412Z,97395.84
2022-11-24T14:56:22.600Z,97398.91
2022-11-24T14:59:25.077Z,97398.75
2022-11-24T15:02:37.577Z,97404.00
2022-11-24T15:05:25.806Z,97404.03
2022-11-24T15:08:14.496Z,97414.78
2022-11-24T15:11:03.304Z,97414.50
2022-11-24T15:13:57.257Z,97421.97
2022-11-24T15:16:44.313Z,97428.63
2022-11-24T15:19:34.330Z,97426.25
2022-11-24T15:22:47.311Z,97438.59
2022-11-24T15:25:34.289Z,97433.34
2022-11-24T15:28:25.746Z,97446.06
2022-11-24T15:31:14.218Z,97450.50
2022-11-24T15:34:01.251Z,97438.59
2022-11-24T15:36:48.214Z,97449.25
2022-11-24T15:39:35.177Z,97455.59
2022-11-24T15:42:22.098Z,97457.06
2022-11-24T15:45:10.045Z,97451.81
2022-11-24T15:47:56.899Z,97460.66
2022-11-24T15:50:43.794Z,97465.16
2022-11-24T15:54:08.194Z,97470.09
2022-11-24T15:56:55.148Z,97469.34
2022-11-24T15:59:42.005Z,97469.31
2022-11-24T16:02:29.172Z,97478.97
2022-11-24T16:05:17.124Z,97466.31
2022-11-24T16:08:05.281Z,97481.47
2022-11-24T16:10:53.312Z,97482.03
2022-11-24T16:13:40.572Z,97484.88
2022-11-24T16:16:27.720Z,97479.84
2022-11-24T16:19:15.917Z,97487.25
2022-11-24T16:22:03.304Z,97494.50
2022-11-24T16:24:50.249Z,97495.25
2022-11-24T16:27:37.327Z,97511.09
2022-11-24T16:30:24.285Z,97532.63
2022-11-24T16:33:11.168Z,97520.41
2022-11-24T16:35:58.496Z,97529.94
2022-11-24T16:38:45.434Z,97527.50
2022-11-24T16:41:32.313Z,97514.25
2022-11-24T16:44:19.224Z,97527.81
2022-11-24T16:47:06.232Z,97526.16
2022-11-24T16:49:53.270Z,97537.56
2022-11-24T16:52:40.262Z,97526.78
2022-11-24T16:55:27.160Z,97533.38
2022-11-24T16:58:14.070Z,97529.47
2022-11-24T17:01:08.554Z,97529.16
2022-11-24T17:03:56.110Z,97525.56
2022-11-24T17:06:43.019Z,97531.31
2022-11-24T17:09:29.990Z,97525.84
2022-11-24T17:12:16.897Z,97539.78
2022-11-24T17:18:28.370Z,97541.78
2022-11-24T17:21:17.767Z,97537.56
2022-11-24T17:24:05.589Z,97541.00
2022-11-24T17:26:52.556Z,97551.03
2022-11-24T17:29:39.454Z,97555.25
2022-11-24T17:32:26.396Z,97553.56
2022-11-24T17:35:13.459Z,97556.63
2022-11-24T17:38:01.325Z,97558.78
2022-11-24T17:40:48.332Z,97555.28
2022-11-24T17:43:35.389Z,97566.22
2022-11-24T17:46:23.843Z,97571.13
2022-11-24T17:49:13.195Z,97575.22
2022-11-24T17:52:00.201Z,97582.09
2022-11-24T17:54:47.157Z,97580.09
2022-11-24T17:57:34.149Z,97583.75
2022-11-24T18:00:21.256Z,97582.69
2022-11-24T18:03:08.133Z,97587.50
2022-11-24T18:05:55.589Z,97587.03
2022-11-24T18:08:46.891Z,97593.44
2022-11-24T18:11:33.769Z,97606.38
2022-11-24T18:14:20.693Z,97598.28
2022-11-24T18:17:07.901Z,97591.38
2022-11-24T18:19:55.028Z,97594.09
2022-11-24T18:25:56.362Z,97609.34
2022-11-24T18:28:44.851Z,97612.03
2022-11-24T18:31:34.163Z,97611.13
2022-11-24T18:34:21.231Z,97619.53
2022-11-24T18:37:09.024Z,97624.47
2022-11-24T18:39:55.913Z,97619.84
2022-11-24T18:42:42.841Z,97623.66
2022-11-24T18:45:29.836Z,97620.41
2022-11-24T18:48:16.785Z,97631.47
2022-11-24T18:51:03.772Z,97620.06
2022-11-24T18:53:54.354Z,97631.56
2022-11-24T18:56:41.324Z,97630.50
2022-11-24T18:59:28.289Z,97639.38
2022-11-24T19:02:15.321Z,97633.00
2022-11-24T19:05:03.232Z,97630.09
2022-11-24T19:07:50.186Z,97633.00
2022-11-24T19:10:38.064Z,97627.91
2022-11-24T19:13:25.141Z,97640.00
2022-11-24T19:16:12.738Z,97636.56
2022-11-24T19:19:01.696Z,97636.47
2022-11-24T19:21:48.992Z,97633.13
2022-11-24T19:24:36.287Z,97630.53
2022-11-24T19:27:23.560Z,97633.97
2022-11-24T19:30:10.710Z,97645.22
2022-11-24T19:32:57.631Z,97649.38
2022-11-24T19:35:45.100Z,97645.22
2022-11-24T19:38:33.588Z,97650.94
2022-11-24T19:41:23.065Z,97660.03
2022-11-24T19:44:13.168Z,97667.41
2022-11-24T19:47:00.151Z,97668.25
2022-11-24T19:49:47.089Z,97675.34
2022-11-24T19:52:34.145Z,97675.75
2022-11-24T19:55:21.227Z,97676.19
2022-11-24T19:58:08.193Z,97679.09
2022-11-24T20:00:55.199Z,97686.41
2022-11-24T20:03:43.904Z,97689.63
2022-11-24T20:06:39.189Z,97686.09
2022-11-24T20:09:26.285Z,97684.41
2022-11-24T20:12:13.387Z,97688.16
2022-11-24T20:15:00.279Z,97691.19
2022-11-24T20:17:47.173Z,97699.84
2022-11-24T20:20:34.316Z,97697.97
2022-11-24T20:23:21.255Z,97696.28
2022-11-24T20:26:12.129Z,97696.81
2022-11-24T20:28:59.994Z,97697.44
2022-11-24T20:31:49.343Z,97695.03
2022-11-24T20:34:37.607Z,97697.97
2022-11-24T20:37:26.005Z,97698.59
2022-11-24T20:40:12.924Z,97704.00
2022-11-24T20:42:59.816Z,97703.88
2022-11-24T20:45:46.799Z,97702.13
2022-11-24T20:48:34.818Z,97701.06
2022-11-24T20:51:24.671Z,97697.66
2022-11-24T20:54:13.099Z,97707.03
2022-11-24T20:57:00.097Z,97709.50
2022-11-24T20:59:47.125Z,97708.19
2022-11-24T21:02:34.106Z,97713.06
2022-11-24T21:05:21.085Z,97703.78
2022-11-24T21:08:07.948Z,97697.84
2022-11-24T21:10:56.585Z,97692.72
2022-11-24T21:13:45.787Z,97703.56
2022-11-24T21:16:35.226Z,97701.91
2022-11-24T21:19:22.189Z,97710.13
2022-11-24T21:22:09.337Z,97713.38
2022-11-24T21:24:56.509Z,97717.84
2022-11-24T21:27:43.432Z,97716.38
2022-11-24T21:30:30.621Z,97715.72
2022-11-24T21:33:17.653Z,97716.38
2022-11-24T21:36:05.676Z,97718.03
2022-11-24T21:38:57.524Z,97712.72
2022-11-24T21:41:44.585Z,97709.06
2022-11-24T21:44:31.698Z,97723.56
2022-11-24T21:47:18.590Z,97722.91
2022-11-24T21:50:06.881Z,97709.97
2022-11-24T21:52:53.844Z,97717.06
2022-11-24T21:55:40.878Z,97726.16
2022-11-24T21:58:28.957Z,97730.72
2022-11-24T22:01:18.578Z,97725.38
2022-11-24T22:04:05.894Z,97725.59
2022-11-24T22:06:53.432Z,97727.69
2022-11-24T22:09:40.331Z,97724.84
2022-11-24T22:12:28.975Z,97722.97
2022-11-24T22:15:15.920Z,97728.44
2022-11-24T22:18:02.883Z,97734.09
2022-11-24T22:20:56.372Z,97734.50
2022-11-24T22:23:43.738Z,97736.44
2022-11-24T22:26:30.943Z,97734.22
2022-11-24T22:29:17.900Z,97726.94
2022-11-24T22:32:05.009Z,97730.09
2022-11-24T22:34:52.042Z,97726.88
2022-11-24T22:37:38.916Z,97735.41
2022-11-24T22:40:25.835Z,97724.81
2022-11-24T22:43:12.766Z,97730.44
2022-11-24T22:46:07.296Z,97728.44
2022-11-24T22:48:57.548Z,97727.72
2022-11-24T22:51:44.712Z,97718.97
2022-11-24T22:54:31.619Z,97724.38
2022-11-24T22:57:18.628Z,97724.59
2022-11-24T23:00:08.316Z,97723.63
2022-11-24T23:02:55.353Z,97725.19
2022-11-24T23:05:42.287Z,97735.53
2022-11-24T23:08:31.748Z,97728.13
2022-11-24T23:11:23.693Z,97724.38
2022-11-24T23:14:15.215Z,97730.59
2022-11-24T23:17:02.134Z,97734.56
2022-11-24T23:19:49.111Z,97735.81
2022-11-24T23:22:36.013Z,97731.13
2022-11-24T23:25:23.138Z,97732.88
2022-11-24T23:28:10.248Z,97734.28
2022-11-24T23:31:05.042Z,97726.34
2022-11-24T23:33:51.959Z,97729.16
2022-11-24T23:36:39.051Z,97725.44
2022-11-24T23:39:25.958Z,97723.91
2022-11-24T23:42:12.889Z,97723.91
2022-11-24T23:44:59.843Z,97727.34
2022-11-24T23:47:46.806Z,97721.91
2022-11-24T23:50:35.303Z,97712.44
2022-11-24T23:53:22.420Z,97707.94
2022-11-24T23:56:14.427Z,97710.16
2022-11-24T23:59:03.077Z,97695.88
